Time,TemperatureF,DewpointF,PressureIn,WindDirection,WindDirectionDegrees,WindSpeedMPH,WindSpeedGustMPH,Humidity,HourlyPrecipIn,Conditions,Clouds,dailyrainin,SoftwareType,DateUTC
2013-03-03 00:11:00,51.3,48.0,30.06,West,276,0.0,1.0,89,0.00,,,0.00,weatherlink.com 1.10,2013-03-03 08:11:00,
2013-03-03 00:26:00,51.5,48.0,30.07,SSW,213,2.0,2.0,88,0.00,,,0.00,weatherlink.com 1.10,2013-03-03 08:26:00,
2013-03-03 00:41:00,51.3,48.0,30.07,SSW,213,0.0,1.0,89,0.00,,,0.00,weatherlink.com 1.10,2013-03-03 08:41:00,
2013-03-03 00:56:00,51.1,48.0,30.07,SSW,213,0.0,1.0,89,0.00,,,0.00,weatherlink.com 1.10,2013-03-03 08:56:00,
2013-03-03 01:11:00,50.8,48.0,30.07,SSW,213,0.0,1.0,90,0.00,,,0.00,weatherlink.com 1.10,2013-03-03 09:11:00,
2013-03-03 01:26:00,50.8,48.0,30.07,NW,325,0.0,2.0,90,0.00,,,0.00,weatherlink.com 1.10,2013-03-03 09:26:00,
2013-03-03 01:42:00,50.9,48.0,30.08,NNW,342,1.0,2.0,91,0.00,,,0.00,weatherlink.com 1.10,2013-03-03 09:42:00,
2013-03-03 01:57:00,50.9,48.0,30.08,NNW,348,0.0,3.0,90,0.00,,,0.00,weatherlink.com 1.10,2013-03-03 09:57:00,
2013-03-03 02:12:00,50.9,48.0,30.08,NNW,348,0.0,1.0,90,0.00,,,0.00,weatherlink.com 1.10,2013-03-03 10:12:00,
2013-03-03 02:27:00,50.7,48.0,30.07,NNW,348,0.0,0.0,90,0.00,,,0.00,weatherlink.com 1.10,2013-03-03 10:27:00,
2013-03-03 02:42:00,50.4,48.0,30.07,NNW,348,0.0,0.0,91,0.00,,,0.00,weatherlink.com 1.10,2013-03-03 10:42:00,
2013-03-03 02:57:00,50.2,48.0,30.07,NNW,348,1.0,1.0,91,0.00,,,0.00,weatherlink.com 1.10,2013-03-03 10:57:00,
2013-03-03 03:12:00,50.1,48.0,30.07,NNW,348,0.0,2.0,91,0.00,,,0.00,weatherlink.com 1.10,2013-03-03 11:12:00,
2013-03-03 03:27:00,49.9,47.0,30.07,NNW,348,0.0,1.0,91,0.00,,,0.00,weatherlink.com 1.10,2013-03-03 11:27:00,
2013-03-03 03:42:00,49.7,48.0,30.07,NNW,348,0.0,1.0,92,0.00,,,0.00,weatherlink.com 1.10,2013-03-03 11:42:00,
2013-03-03 03:57:00,49.6,47.0,30.07,NNW,348,0.0,1.0,92,0.00,,,0.00,weatherlink.com 1.10,2013-03-03 11:57:00,
2013-03-03 04:12:00,49.5,47.0,30.07,NNW,348,0.0,1.0,92,0.00,,,0.00,weatherlink.com 1.10,2013-03-03 12:12:00,
2013-03-03 04:27:00,49.5,48.0,30.07,NNW,348,0.0,2.0,93,0.00,,,0.00,weatherlink.com 1.10,2013-03-03 12:27:00,
2013-03-03 04:42:00,49.4,48.0,30.07,NNW,348,0.0,0.0,93,0.00,,,0.00,weatherlink.com 1.10,2013-03-03 12:42:00,
2013-03-03 04:57:00,49.6,48.0,30.07,NNW,348,0.0,2.0,93,0.00,,,0.00,weatherlink.com 1.10,2013-03-03 12:57:00,
2013-03-03 05:12:00,49.6,48.0,30.07,NNW,348,0.0,1.0,93,0.00,,,0.00,weatherlink.com 1.10,2013-03-03 13:12:00,
2013-03-03 05:27:00,49.6,48.0,30.07,NNW,348,0.0,1.0,93,0.00,,,0.00,weatherlink.com 1.10,2013-03-03 13:27:00,
2013-03-03 05:42:00,49.6,48.0,30.08,NNW,348,0.0,0.0,93,0.00,,,0.00,weatherlink.com 1.10,2013-03-03 13:42:00,
2013-03-03 05:57:00,49.6,48.0,30.08,NNW,348,0.0,1.0,94,0.00,,,0.00,weatherlink.com 1.10,2013-03-03 13:57:00,
2013-03-03 06:12:00,49.7,48.0,30.07,NNW,348,0.0,1.0,94,0.00,,,0.00,weatherlink.com 1.10,2013-03-03 14:12:00,
2013-03-03 06:27:00,49.8,48.0,30.07,NNW,348,0.0,1.0,93,0.00,,,0.00,weatherlink.com 1.10,2013-03-03 14:27:00,
2013-03-03 06:42:00,49.8,48.0,30.07,NNW,348,0.0,0.0,93,0.00,,,0.00,weatherlink.com 1.10,2013-03-03 14:42:00,
2013-03-03 06:57:00,49.9,48.0,30.07,NNW,348,0.0,1.0,93,0.00,,,0.00,weatherlink.com 1.10,2013-03-03 14:57:00,
2013-03-03 07:12:00,49.9,48.0,30.07,NNW,348,0.0,0.0,93,0.00,,,0.00,weatherlink.com 1.10,2013-03-03 15:12:00,
2013-03-03 07:27:00,49.9,48.0,30.07,NNW,348,0.0,1.0,93,0.00,,,0.00,weatherlink.com 1.10,2013-03-03 15:27:00,
2013-03-03 07:42:00,50.1,49.0,30.07,NNW,348,0.0,1.0,94,0.00,,,0.00,weatherlink.com 1.10,2013-03-03 15:42:00,
2013-03-03 07:57:00,50.4,49.0,30.08,NNW,348,0.0,1.0,93,0.00,,,0.00,weatherlink.com 1.10,2013-03-03 15:57:00,
2013-03-03 08:12:00,50.5,48.0,30.08,NNW,348,0.0,2.0,92,0.00,,,0.00,weatherlink.com 1.10,2013-03-03 16:12:00,
2013-03-03 08:27:00,50.8,49.0,30.08,NNW,348,0.0,1.0,92,0.00,,,0.00,weatherlink.com 1.10,2013-03-03 16:27:00,
2013-03-03 08:42:00,51.5,49.0,30.08,East,94,0.0,2.0,91,0.00,,,0.00,weatherlink.com 1.10,2013-03-03 16:42:00,
2013-03-03 08:57:00,51.8,49.0,30.07,SW,214,1.0,4.0,90,0.00,,,0.00,weatherlink.com 1.10,2013-03-03 16:57:00,
2013-03-03 09:12:00,52.2,49.0,30.07,SW,217,1.0,5.0,90,0.00,,,0.00,weatherlink.com 1.10,2013-03-03 17:12:00,
2013-03-03 09:27:00,53.1,50.0,30.08,SSW,208,0.0,3.0,88,0.00,,,0.00,weatherlink.com 1.10,2013-03-03 17:27:00,
2013-03-03 09:42:00,53.7,50.0,30.08,SSW,206,1.0,3.0,86,0.00,,,0.00,weatherlink.com 1.10,2013-03-03 17:42:00,
2013-03-03 09:57:00,55.0,51.0,30.07,NNE,21,0.0,3.0,85,0.00,,,0.00,weatherlink.com 1.10,2013-03-03 17:57:00,
2013-03-03 10:12:00,55.9,51.0,30.07,NNE,14,0.0,2.0,84,0.00,,,0.00,weatherlink.com 1.10,2013-03-03 18:12:00,
2013-03-03 10:27:00,57.2,52.0,30.07,NNW,342,1.0,3.0,82,0.00,,,0.00,weatherlink.com 1.10,2013-03-03 18:27:00,
2013-03-03 10:42:00,59.0,52.0,30.06,SE,138,2.0,4.0,78,0.00,,,0.00,weatherlink.com 1.10,2013-03-03 18:42:00,
2013-03-03 10:57:00,60.0,52.0,30.06,NNE,16,2.0,4.0,75,0.00,,,0.00,weatherlink.com 1.10,2013-03-03 18:57:00,
2013-03-03 11:12:00,61.2,52.0,30.06,North,355,3.0,4.0,73,0.00,,,0.00,weatherlink.com 1.10,2013-03-03 19:12:00,
2013-03-03 11:27:00,62.0,52.0,30.05,North,5,0.0,5.0,71,0.00,,,0.00,weatherlink.com 1.10,2013-03-03 19:27:00,
2013-03-03 11:42:00,62.7,52.0,30.05,SE,130,1.0,6.0,67,0.00,,,0.00,weatherlink.com 1.10,2013-03-03 19:42:00,
2013-03-03 11:58:00,64.0,52.0,30.04,SSW,201,0.0,4.0,65,0.00,,,0.00,weatherlink.com 1.10,2013-03-03 19:58:00,
2013-03-03 12:13:00,64.9,52.0,30.04,ENE,73,1.0,3.0,64,0.00,,,0.00,weatherlink.com 1.10,2013-03-03 20:13:00,
2013-03-03 12:28:00,66.0,52.0,30.03,SE,143,1.0,4.0,62,0.00,,,0.00,weatherlink.com 1.10,2013-03-03 20:28:00,
2013-03-03 12:43:00,66.1,52.0,30.02,SSE,158,2.0,7.0,61,0.00,,,0.00,weatherlink.com 1.10,2013-03-03 20:43:00,
2013-03-03 12:58:00,66.6,52.0,30.01,SSE,153,0.0,5.0,60,0.00,,,0.00,weatherlink.com 1.10,2013-03-03 20:58:00,
2013-03-03 13:13:00,67.1,53.0,30.01,SSE,165,0.0,4.0,60,0.00,,,0.00,weatherlink.com 1.10,2013-03-03 21:13:00,
2013-03-03 13:28:00,67.6,52.0,30.00,NNE,17,0.0,5.0,58,0.00,,,0.00,weatherlink.com 1.10,2013-03-03 21:28:00,
2013-03-03 13:43:00,68.3,51.0,30.00,ESE,103,4.0,6.0,55,0.00,,,0.00,weatherlink.com 1.10,2013-03-03 21:43:00,
2013-03-03 13:58:00,68.8,50.0,29.99,SE,134,2.0,5.0,51,0.00,,,0.00,weatherlink.com 1.10,2013-03-03 21:58:00,
2013-03-03 14:13:00,69.7,49.0,29.99,South,180,0.0,7.0,48,0.00,,,0.00,weatherlink.com 1.10,2013-03-03 22:13:00,
2013-03-03 14:28:00,71.4,49.0,29.99,SSE,151,1.0,6.0,46,0.00,,,0.00,weatherlink.com 1.10,2013-03-03 22:28:00,
2013-03-03 14:43:00,70.5,49.0,29.99,South,180,6.0,8.0,46,0.00,,,0.00,weatherlink.com 1.10,2013-03-03 22:43:00,
2013-03-03 14:58:00,70.1,48.0,30.00,SSW,200,2.0,7.0,46,0.00,,,0.00,weatherlink.com 1.10,2013-03-03 22:58:00,
2013-03-03 15:13:00,69.2,48.0,29.99,SSE,160,0.0,7.0,47,0.00,,,0.00,weatherlink.com 1.10,2013-03-03 23:13:00,
2013-03-03 15:28:00,68.1,49.0,29.99,SE,130,2.0,3.0,51,0.00,,,0.00,weatherlink.com 1.10,2013-03-03 23:28:00,
2013-03-03 15:43:00,68.1,48.0,29.99,ESE,115,4.0,5.0,48,0.00,,,0.00,weatherlink.com 1.10,2013-03-03 23:43:00,
2013-03-03 15:58:00,68.7,47.0,29.99,SE,126,3.0,5.0,46,0.00,,,0.00,weatherlink.com 1.10,2013-03-03 23:58:00,
2013-03-03 16:13:00,67.8,51.0,29.99,NNW,345,1.0,7.0,55,0.00,,,0.00,weatherlink.com 1.10,2013-03-04 00:13:00,
2013-03-03 16:28:00,66.7,51.0,29.99,North,350,2.0,6.0,57,0.00,,,0.00,weatherlink.com 1.10,2013-03-04 00:28:00,
2013-03-03 16:43:00,65.2,51.0,30.00,North,350,3.0,6.0,60,0.00,,,0.00,weatherlink.com 1.10,2013-03-04 00:43:00,
2013-03-03 16:58:00,64.4,50.0,30.00,NNW,346,4.0,4.0,60,0.00,,,0.00,weatherlink.com 1.10,2013-03-04 00:58:00,
2013-03-03 17:13:00,62.6,50.0,30.00,North,5,5.0,6.0,64,0.00,,,0.00,weatherlink.com 1.10,2013-03-04 01:13:00,
2013-03-03 17:28:00,59.8,50.0,30.01,North,360,3.0,8.0,69,0.00,,,0.00,weatherlink.com 1.10,2013-03-04 01:28:00,
2013-03-03 17:43:00,58.7,49.0,30.01,NNW,333,2.0,8.0,70,0.00,,,0.00,weatherlink.com 1.10,2013-03-04 01:43:00,
2013-03-03 17:58:00,57.3,48.0,30.01,NNW,332,2.0,6.0,72,0.00,,,0.00,weatherlink.com 1.10,2013-03-04 01:58:00,
2013-03-03 18:13:00,55.9,48.0,30.02,South,182,0.0,3.0,74,0.00,,,0.00,weatherlink.com 1.10,2013-03-04 02:13:00,
2013-03-03 18:28:00,54.4,47.0,30.02,South,175,2.0,4.0,77,0.00,,,0.00,weatherlink.com 1.10,2013-03-04 02:28:00,
2013-03-03 18:43:00,53.1,47.0,30.03,SSE,165,1.0,3.0,79,0.00,,,0.00,weatherlink.com 1.10,2013-03-04 02:43:00,
2013-03-03 18:58:00,52.1,46.0,30.03,SSE,163,1.0,3.0,81,0.00,,,0.00,weatherlink.com 1.10,2013-03-04 02:58:00,
2013-03-03 19:13:00,51.1,46.0,30.03,SSE,157,0.0,2.0,83,0.00,,,0.00,weatherlink.com 1.10,2013-03-04 03:13:00,
2013-03-03 19:28:00,50.4,46.0,30.04,SSE,157,0.0,3.0,85,0.00,,,0.00,weatherlink.com 1.10,2013-03-04 03:28:00,
2013-03-03 19:43:00,49.8,46.0,30.04,South,174,0.0,3.0,86,0.00,,,0.00,weatherlink.com 1.10,2013-03-04 03:43:00,
2013-03-03 19:59:00,49.2,46.0,30.05,South,174,0.0,1.0,87,0.00,,,0.00,weatherlink.com 1.10,2013-03-04 03:59:00,
2013-03-03 20:13:00,48.7,45.0,30.05,South,174,0.0,1.0,88,0.00,,,0.00,weatherlink.com 1.10,2013-03-04 04:13:00,
2013-03-03 20:28:00,48.2,45.0,30.05,South,174,0.0,0.0,88,0.00,,,0.00,weatherlink.com 1.10,2013-03-04 04:28:00,
2013-03-03 20:43:00,47.7,45.0,30.05,South,174,0.0,0.0,89,0.00,,,0.00,weatherlink.com 1.10,2013-03-04 04:43:00,
2013-03-03 20:58:00,47.6,45.0,30.06,South,174,0.0,1.0,91,0.00,,,0.00,weatherlink.com 1.10,2013-03-04 04:58:00,
2013-03-03 21:14:00,47.3,45.0,30.06,South,174,0.0,1.0,91,0.00,,,0.00,weatherlink.com 1.10,2013-03-04 05:14:00,
2013-03-03 21:29:00,47.3,45.0,30.07,South,174,0.0,0.0,92,0.00,,,0.00,weatherlink.com 1.10,2013-03-04 05:29:00,
2013-03-03 21:44:00,47.4,45.0,30.07,South,174,0.0,0.0,92,0.00,,,0.00,weatherlink.com 1.10,2013-03-04 05:44:00,
2013-03-03 21:59:00,47.8,46.0,30.08,South,174,0.0,1.0,92,0.00,,,0.00,weatherlink.com 1.10,2013-03-04 05:59:00,
2013-03-03 22:14:00,48.0,46.0,30.08,South,173,0.0,3.0,91,0.00,,,0.00,weatherlink.com 1.10,2013-03-04 06:14:00,
2013-03-03 22:29:00,48.0,46.0,30.07,South,173,0.0,1.0,92,0.00,,,0.00,weatherlink.com 1.10,2013-03-04 06:29:00,
2013-03-03 22:44:00,48.1,46.0,30.07,South,173,0.0,1.0,91,0.00,,,0.00,weatherlink.com 1.10,2013-03-04 06:44:00,
2013-03-03 22:59:00,48.1,46.0,30.06,South,173,1.0,1.0,92,0.00,,,0.00,weatherlink.com 1.10,2013-03-04 06:59:00,
2013-03-03 23:14:00,48.1,46.0,30.06,SSW,201,1.0,2.0,92,0.00,,,0.00,weatherlink.com 1.10,2013-03-04 07:14:00,
2013-03-03 23:29:00,48.1,46.0,30.07,SSW,205,0.0,2.0,92,0.00,,,0.00,weatherlink.com 1.10,2013-03-04 07:29:00,
2013-03-03 23:44:00,48.1,46.0,30.07,SSW,205,0.0,2.0,92,0.00,,,0.00,weatherlink.com 1.10,2013-03-04 07:44:00,
2013-03-03 23:59:00,48.1,46.0,30.07,SW,214,0.0,2.0,92,0.00,,,0.00,weatherlink.com 1.10,2013-03-04 07:59:00,